Time;durP1;ratioP1;P1;durP2;ratioP2;P2;SDS_P1;SDS_P2;PMS_P1;PMS_P2;Temp;Humidity;BMP_temperature;BMP_pressure;BME280_temperature;BME280_humidity;BME280_pressure;Samples;Min_cycle;Max_cycle;Signal;HPM_P1;HPM_P2
2023/03/04 00:01:38;;;;;;;5.95;3.60;;;;;;;;;;5082968;28;20039;-83
2023/03/04 00:04:04;;;;;;;8.43;4.22;;;;;;;;;;5084367;28;20028;-84
2023/03/04 00:06:29;;;;;;;7.07;3.35;;;;;;;;;;5090663;28;20044;-84
2023/03/04 00:08:55;;;;;;;10.20;4.72;;;;;;;;;;5087929;28;20027;-83
2023/03/04 00:11:20;;;;;;;5.90;4.85;;;;;;;;;;5085035;28;20056;-84
2023/03/04 00:13:46;;;;;;;5.50;3.53;;;;;;;;;;5085938;28;20020;-86
2023/03/04 00:16:11;;;;;;;8.55;3.65;;;;;;;;;;5086425;28;20032;-86
2023/03/04 00:18:36;;;;;;;4.93;3.58;;;;;;;;;;5086547;28;20115;-87
2023/03/04 00:21:02;;;;;;;8.38;3.80;;;;;;;;;;5086076;28;20032;-86
2023/03/04 00:23:27;;;;;;;2.70;2.30;;;;;;;;;;5081690;28;20035;-86
2023/03/04 00:25:53;;;;;;;10.43;3.95;;;;;;;;;;5086896;28;20029;-85
2023/03/04 00:28:18;;;;;;;7.60;4.22;;;;;;;;;;5086529;28;20035;-85
2023/03/04 00:30:44;;;;;;;5.40;3.13;;;;;;;;;;5085427;28;20181;-85
2023/03/04 00:33:09;;;;;;;5.43;2.75;;;;;;;;;;5081748;28;20036;-85
2023/03/04 00:35:35;;;;;;;6.93;3.65;;;;;;;;;;5083444;28;20032;-85
2023/03/04 00:38:00;;;;;;;3.67;1.98;;;;;;;;;;5088214;28;20080;-87
2023/03/04 00:40:26;;;;;;;5.85;3.53;;;;;;;;;;5085678;28;20032;-86
2023/03/04 00:42:51;;;;;;;9.35;3.97;;;;;;;;;;5091958;28;20031;-86
2023/03/04 00:45:17;;;;;;;5.55;3.88;;;;;;;;;;5082247;28;20040;-87
2023/03/04 00:47:42;;;;;;;8.23;3.45;;;;;;;;;;5084175;28;20031;-87
2023/03/04 00:50:09;;;;;;;7.82;3.75;;;;;;;;;;5089088;28;20048;-87
2023/03/04 00:52:34;;;;;;;6.20;3.60;;;;;;;;;;5082450;28;20047;-84
2023/03/04 00:55:00;;;;;;;9.35;3.67;;;;;;;;;;5084767;28;20031;-85
2023/03/04 00:57:25;;;;;;;7.93;4.13;;;;;;;;;;5084203;28;20430;-85
2023/03/04 00:59:50;;;;;;;6.32;4.13;;;;;;;;;;5084774;28;20054;-85
2023/03/04 01:02:16;;;;;;;7.78;4.15;;;;;;;;;;5086985;28;20036;-84
2023/03/04 01:04:41;;;;;;;5.20;4.10;;;;;;;;;;5081162;28;20052;-85
2023/03/04 01:07:07;;;;;;;6.93;4.15;;;;;;;;;;5083267;28;20035;-85
2023/03/04 01:09:33;;;;;;;7.00;4.70;;;;;;;;;;5084559;28;20456;-84
2023/03/04 01:11:58;;;;;;;6.30;3.80;;;;;;;;;;5087391;28;20036;-85
2023/03/04 01:14:24;;;;;;;9.38;4.72;;;;;;;;;;5079320;28;20028;-83
2023/03/04 01:16:49;;;;;;;6.65;4.90;;;;;;;;;;5083401;28;20028;-85
2023/03/04 01:19:15;;;;;;;8.73;4.65;;;;;;;;;;5090301;28;20077;-84
2023/03/04 01:21:41;;;;;;;12.63;4.75;;;;;;;;;;5089032;28;20089;-84
2023/03/04 01:24:07;;;;;;;10.13;3.92;;;;;;;;;;5086976;28;20036;-85
2023/03/04 01:26:32;;;;;;;5.35;2.65;;;;;;;;;;5085584;28;20017;-84
2023/03/04 01:28:58;;;;;;;8.38;4.13;;;;;;;;;;5088092;28;20035;-85
2023/03/04 01:31:23;;;;;;;6.93;3.10;;;;;;;;;;5085726;28;20396;-85
2023/03/04 01:33:48;;;;;;;7.57;5.15;;;;;;;;;;5080707;28;20040;-88
2023/03/04 01:36:14;;;;;;;6.45;3.58;;;;;;;;;;5084092;28;20108;-86
2023/03/04 01:38:39;;;;;;;7.97;3.67;;;;;;;;;;5089944;28;20115;-86
2023/03/04 01:41:06;;;;;;;7.72;3.70;;;;;;;;;;5084813;28;20063;-84
2023/03/04 01:43:35;;;;;;;10.32;5.03;;;;;;;;;;5084746;28;20016;-87
2023/03/04 01:46:01;;;;;;;7.95;5.07;;;;;;;;;;5081877;28;20032;-87
2023/03/04 01:48:32;;;;;;;6.57;2.50;;;;;;;;;;5084390;28;20423;-86
2023/03/04 01:51:01;;;;;;;7.43;5.05;;;;;;;;;;5082572;28;20023;-86
2023/03/04 01:53:28;;;;;;;3.57;2.70;;;;;;;;;;5085331;28;20073;-87
2023/03/04 01:56:00;;;;;;;3.70;3.38;;;;;;;;;;5083074;28;20430;-85
2023/03/04 01:58:29;;;;;;;5.18;3.15;;;;;;;;;;5084026;28;20114;-85
2023/03/04 02:00:55;;;;;;;;;;;;;;;;;;5085105;28;20049;-85
2023/03/04 02:03:22;;;;;;;3.75;2.22;;;;;;;;;;5083460;28;19991;-85
2023/03/04 02:05:49;;;;;;;4.97;3.22;;;;;;;;;;5085006;28;20020;-85
2023/03/04 02:08:18;;;;;;;8.30;5.13;;;;;;;;;;5082108;28;20444;-86
2023/03/04 02:10:45;;;;;;;4.90;3.25;;;;;;;;;;5082338;28;20127;-82
2023/03/04 02:13:14;;;;;;;6.95;3.90;;;;;;;;;;5081751;28;20029;-85
2023/03/04 02:15:40;;;;;;;6.53;5.03;;;;;;;;;;5085089;28;20074;-85
2023/03/04 02:18:26;;;;;;;3.60;2.85;;;;;;;;;;5084728;28;20052;-84
2023/03/04 02:21:04;;;;;;;3.92;3.00;;;;;;;;;;5087958;28;20028;-84
2023/03/04 02:23:29;;;;;;;3.28;2.17;;;;;;;;;;5110764;28;20091;-84
2023/03/04 02:26:23;;;;;;;4.75;3.03;;;;;;;;;;5088291;28;20060;-84
2023/03/04 02:28:51;;;;;;;9.25;5.25;;;;;;;;;;5083544;28;20024;-85
2023/03/04 02:31:19;;;;;;;6.05;3.70;;;;;;;;;;5089009;28;20416;-84
2023/03/04 02:33:45;;;;;;;11.40;5.85;;;;;;;;;;5089818;28;20028;-83
2023/03/04 02:36:10;;;;;;;6.97;2.90;;;;;;;;;;5088366;28;20477;-82
2023/03/04 02:38:35;;;;;;;8.18;5.00;;;;;;;;;;5087574;28;20491;-83
2023/03/04 02:41:02;;;;;;;6.53;3.92;;;;;;;;;;5083849;28;20517;-82
2023/03/04 02:43:27;;;;;;;7.03;3.33;;;;;;;;;;5111016;28;20031;-83
2023/03/04 02:45:53;;;;;;;7.65;3.60;;;;;;;;;;5088356;28;20023;-82
2023/03/04 02:48:22;;;;;;;7.85;3.78;;;;;;;;;;5084133;28;20029;-82
2023/03/04 02:50:51;;;;;;;6.47;3.17;;;;;;;;;;5087903;28;20103;-82
2023/03/04 02:53:19;;;;;;;5.95;3.85;;;;;;;;;;5108133;28;20034;-82
2023/03/04 02:55:45;;;;;;;4.38;3.25;;;;;;;;;;5083784;28;20024;-82
2023/03/04 02:58:11;;;;;;;7.05;4.65;;;;;;;;;;5088178;28;20031;-82
2023/03/04 03:00:37;;;;;;;8.95;5.03;;;;;;;;;;5086593;28;20032;-83
2023/03/04 03:03:02;;;;;;;14.50;4.72;;;;;;;;;;5088112;28;20055;-82
2023/03/04 03:05:30;;;;;;;4.03;3.25;;;;;;;;;;5089138;28;20028;-82
2023/03/04 03:07:56;;;;;;;7.60;4.28;;;;;;;;;;5081487;28;20025;-82
2023/03/04 03:10:21;;;;;;;7.57;4.13;;;;;;;;;;5085287;28;20039;-82
2023/03/04 03:12:47;;;;;;;5.25;3.05;;;;;;;;;;5080770;28;20529;-82
2023/03/04 03:15:12;;;;;;;5.43;2.70;;;;;;;;;;5084559;28;20026;-83
2023/03/04 03:17:38;;;;;;;5.82;3.72;;;;;;;;;;5082695;28;20037;-82
2023/03/04 03:20:04;;;;;;;4.13;2.83;;;;;;;;;;5087556;28;20028;-83
2023/03/04 03:22:30;;;;;;;2.78;2.47;;;;;;;;;;5090468;28;20028;-85
2023/03/04 03:24:55;;;;;;;4.90;3.17;;;;;;;;;;5089400;28;20028;-85
2023/03/04 03:27:20;;;;;;;8.35;4.22;;;;;;;;;;5085843;28;20885;-86
2023/03/04 03:29:47;;;;;;;6.13;4.03;;;;;;;;;;5090636;28;20101;-86
2023/03/04 03:32:12;;;;;;;4.25;3.53;;;;;;;;;;5086531;28;20399;-86
2023/03/04 03:34:38;;;;;;;6.93;4.65;;;;;;;;;;5089224;28;20028;-84
2023/03/04 03:37:03;;;;;;;8.32;3.92;;;;;;;;;;5085460;28;20024;-87
2023/03/04 03:39:29;;;;;;;4.65;2.88;;;;;;;;;;5085515;28;20032;-86
2023/03/04 03:41:54;;;;;;;8.38;4.68;;;;;;;;;;5085101;28;20437;-86
2023/03/04 03:44:20;;;;;;;3.28;2.60;;;;;;;;;;5085518;28;20057;-86
2023/03/04 03:46:46;;;;;;;3.80;1.60;;;;;;;;;;5088806;28;20044;-82
2023/03/04 03:49:11;;;;;;;2.08;1.48;;;;;;;;;;5084418;28;20502;-87
2023/03/04 03:51:37;;;;;;;4.55;1.73;;;;;;;;;;5089168;28;20024;-83
2023/03/04 03:54:03;;;;;;;1.80;1.33;;;;;;;;;;5084141;28;20020;-82
2023/03/04 03:56:28;;;;;;;2.08;1.90;;;;;;;;;;5107937;28;20137;-83
2023/03/04 03:58:54;;;;;;;1.83;1.63;;;;;;;;;;5087156;28;20024;-83
2023/03/04 04:01:19;;;;;;;2.25;1.77;;;;;;;;;;5086513;28;20054;-84
2023/03/04 04:03:44;;;;;;;4.60;2.40;;;;;;;;;;5086548;28;20108;-84
2023/03/04 04:06:10;;;;;;;3.22;1.83;;;;;;;;;;5087872;28;20036;-83
2023/03/04 04:08:35;;;;;;;1.02;1.00;;;;;;;;;;5082979;28;20028;-85
2023/03/04 04:11:01;;;;;;;2.67;1.42;;;;;;;;;;5084321;28;20028;-84
2023/03/04 04:13:26;;;;;;;1.17;0.80;;;;;;;;;;5085123;28;20023;-87
2023/03/04 04:15:52;;;;;;;0.45;0.45;;;;;;;;;;5084491;28;20043;-84
2023/03/04 04:18:17;;;;;;;1.38;1.13;;;;;;;;;;5086328;28;20080;-85
2023/03/04 04:20:43;;;;;;;1.85;1.02;;;;;;;;;;5109432;28;20038;-86
2023/03/04 04:23:08;;;;;;;1.08;0.98;;;;;;;;;;5088472;28;20133;-87
2023/03/04 04:25:33;;;;;;;2.38;2.03;;;;;;;;;;5081258;28;20061;-85
2023/03/04 04:27:59;;;;;;;1.60;1.05;;;;;;;;;;5087421;28;20032;-85
2023/03/04 04:30:24;;;;;;;8.20;1.85;;;;;;;;;;5085914;28;20111;-87
2023/03/04 04:32:50;;;;;;;1.23;0.93;;;;;;;;;;5085601;28;20028;-86
2023/03/04 04:35:15;;;;;;;1.42;0.90;;;;;;;;;;5088801;28;20158;-85
2023/03/04 04:37:41;;;;;;;1.52;1.23;;;;;;;;;;5081267;28;20028;-83
2023/03/04 04:40:07;;;;;;;4.75;1.98;;;;;;;;;;5082187;28;20024;-84
2023/03/04 04:42:32;;;;;;;3.13;1.45;;;;;;;;;;5085678;28;20024;-84
2023/03/04 04:44:58;;;;;;;2.22;1.65;;;;;;;;;;5106969;28;20040;-84
2023/03/04 04:47:23;;;;;;;2.92;1.60;;;;;;;;;;5085706;28;20047;-83
2023/03/04 04:49:49;;;;;;;1.55;0.98;;;;;;;;;;5082861;28;20028;-84
2023/03/04 04:52:14;;;;;;;2.72;1.45;;;;;;;;;;5087339;28;20479;-86
2023/03/04 04:54:39;;;;;;;2.97;1.85;;;;;;;;;;5085993;28;20028;-84
2023/03/04 04:57:05;;;;;;;1.52;0.82;;;;;;;;;;5086483;28;20039;-84
2023/03/04 04:59:30;;;;;;;1.40;1.30;;;;;;;;;;5089073;28;20036;-85
2023/03/04 05:01:56;;;;;;;1.42;1.27;;;;;;;;;;5087408;28;20024;-87
2023/03/04 05:04:21;;;;;;;3.35;0.93;;;;;;;;;;5109519;28;20020;-83
2023/03/04 05:06:46;;;;;;;1.20;1.13;;;;;;;;;;5088567;28;20103;-84
2023/03/04 05:09:12;;;;;;;2.00;1.25;;;;;;;;;;5088250;28;20032;-83
2023/03/04 05:11:38;;;;;;;1.20;1.08;;;;;;;;;;5086214;28;20099;-83
2023/03/04 05:14:03;;;;;;;0.98;0.90;;;;;;;;;;5084555;28;20379;-83
2023/03/04 05:16:28;;;;;;;2.40;0.80;;;;;;;;;;5085008;28;20134;-82
2023/03/04 05:18:54;;;;;;;1.50;1.40;;;;;;;;;;5088572;28;20073;-83
2023/03/04 05:21:19;;;;;;;4.85;1.08;;;;;;;;;;5087943;28;20097;-82
2023/03/04 05:23:51;;;;;;;1.40;1.20;;;;;;;;;;5086147;28;20024;-82
2023/03/04 05:26:17;;;;;;;0.63;0.63;;;;;;;;;;5085080;28;20472;-82
2023/03/04 05:28:43;;;;;;;0.65;0.63;;;;;;;;;;5083638;28;20016;-85
2023/03/04 05:31:09;;;;;;;1.42;1.23;;;;;;;;;;5078753;28;20041;-83
2023/03/04 05:33:35;;;;;;;1.30;1.20;;;;;;;;;;5106727;28;20026;-84
2023/03/04 05:36:02;;;;;;;2.08;1.90;;;;;;;;;;5082034;28;20111;-86
2023/03/04 05:38:28;;;;;;;0.88;0.85;;;;;;;;;;5082840;28;20024;-83
2023/03/04 05:40:58;;;;;;;2.53;1.45;;;;;;;;;;5085169;28;20039;-84
2023/03/04 05:43:25;;;;;;;1.15;1.05;;;;;;;;;;5081778;28;20037;-85
2023/03/04 05:45:50;;;;;;;1.40;0.95;;;;;;;;;;5080667;28;20025;-82
2023/03/04 05:48:16;;;;;;;1.30;1.02;;;;;;;;;;5079718;28;20028;-83
2023/03/04 05:50:41;;;;;;;1.90;1.17;;;;;;;;;;5085847;28;20023;-83
2023/03/04 05:53:06;;;;;;;1.02;0.77;;;;;;;;;;5107535;28;20383;-83
2023/03/04 05:55:32;;;;;;;1.83;1.63;;;;;;;;;;5083293;28;20064;-84
2023/03/04 05:57:58;;;;;;;1.52;1.42;;;;;;;;;;5087769;28;20494;-82
2023/03/04 06:00:24;;;;;;;2.03;1.35;;;;;;;;;;5083339;28;20036;-81
2023/03/04 06:02:49;;;;;;;2.45;1.48;;;;;;;;;;5083949;28;20024;-84
2023/03/04 06:05:15;;;;;;;6.72;2.55;;;;;;;;;;5090994;28;20040;-81
2023/03/04 06:07:42;;;;;;;2.83;1.33;;;;;;;;;;5085129;28;20365;-82
2023/03/04 06:10:09;;;;;;;1.70;1.27;;;;;;;;;;5083591;28;20031;-83
2023/03/04 06:12:34;;;;;;;1.45;1.23;;;;;;;;;;5085197;28;20036;-82
2023/03/04 06:15:01;;;;;;;2.45;1.02;;;;;;;;;;5081235;28;20115;-81
2023/03/04 06:17:29;;;;;;;1.42;1.10;;;;;;;;;;5086395;28;20661;-81
2023/03/04 06:19:55;;;;;;;1.23;1.13;;;;;;;;;;5088185;28;20085;-82
2023/03/04 06:22:20;;;;;;;5.03;1.35;;;;;;;;;;5084355;28;20028;-80
2023/03/04 06:24:48;;;;;;;1.20;1.10;;;;;;;;;;5097326;28;20104;-81
2023/03/04 06:27:15;;;;;;;3.40;1.75;;;;;;;;;;5082567;28;20089;-83
2023/03/04 06:29:41;;;;;;;1.85;1.48;;;;;;;;;;5084152;28;20028;-82
2023/03/04 06:32:06;;;;;;;3.10;1.88;;;;;;;;;;5087433;28;20127;-81
2023/03/04 06:34:33;;;;;;;2.60;1.85;;;;;;;;;;5080254;28;20032;-82
2023/03/04 06:37:01;;;;;;;2.22;1.67;;;;;;;;;;5087367;28;20032;-82
2023/03/04 06:39:27;;;;;;;0.70;0.70;;;;;;;;;;5087307;28;20078;-83
2023/03/04 06:41:52;;;;;;;2.65;2.08;;;;;;;;;;5081463;28;20028;-80
2023/03/04 06:44:17;;;;;;;3.53;1.70;;;;;;;;;;5082145;28;20507;-82
2023/03/04 06:46:43;;;;;;;1.90;1.50;;;;;;;;;;5083359;28;20028;-86
2023/03/04 06:49:08;;;;;;;1.70;1.48;;;;;;;;;;5089963;28;20020;-83
2023/03/04 06:51:34;;;;;;;10.50;4.10;;;;;;;;;;5083983;28;20039;-85
2023/03/04 06:54:02;;;;;;;4.93;3.28;;;;;;;;;;5085159;28;20032;-84
2023/03/04 06:56:28;;;;;;;6.70;3.38;;;;;;;;;;5089762;28;20061;-85
2023/03/04 06:58:53;;;;;;;5.63;2.70;;;;;;;;;;5083199;28;20029;-82
2023/03/04 07:01:25;;;;;;;10.65;7.22;;;;;;;;;;5085573;28;20384;-84
2023/03/04 07:03:52;;;;;;;6.80;4.80;;;;;;;;;;5082481;28;20502;-83
2023/03/04 07:06:21;;;;;;;8.70;4.80;;;;;;;;;;5082719;28;20016;-83
2023/03/04 07:08:46;;;;;;;4.03;2.72;;;;;;;;;;5086082;28;20044;-82
2023/03/04 07:11:13;;;;;;;4.45;3.22;;;;;;;;;;5082992;28;20051;-84
2023/03/04 07:13:39;;;;;;;6.63;3.30;;;;;;;;;;5086124;28;20027;-84
2023/03/04 07:16:06;;;;;;;6.22;3.20;;;;;;;;;;5086418;28;20031;-85
2023/03/04 07:18:32;;;;;;;3.60;2.05;;;;;;;;;;5089989;28;20102;-82
2023/03/04 07:20:58;;;;;;;7.05;2.72;;;;;;;;;;5085575;28;20527;-83
2023/03/04 07:23:23;;;;;;;4.20;3.35;;;;;;;;;;5083756;28;20120;-80
2023/03/04 07:25:49;;;;;;;8.48;4.50;;;;;;;;;;5083018;28;20024;-84
2023/03/04 07:28:15;;;;;;;4.40;3.05;;;;;;;;;;5081372;28;20086;-81
2023/03/04 07:30:41;;;;;;;5.90;3.42;;;;;;;;;;5079977;28;20035;-81
2023/03/04 07:33:06;;;;;;;5.90;3.28;;;;;;;;;;5085567;28;20027;-82
2023/03/04 07:35:32;;;;;;;5.80;3.92;;;;;;;;;;5080558;28;20464;-81
2023/03/04 07:37:57;;;;;;;5.70;3.75;;;;;;;;;;5107128;27;20031;-82
2023/03/04 07:40:23;;;;;;;11.68;4.03;;;;;;;;;;5083277;28;20111;-83
2023/03/04 07:42:53;;;;;;;5.95;4.50;;;;;;;;;;5085949;28;20024;-85
2023/03/04 07:45:18;;;;;;;9.27;3.22;;;;;;;;;;5084749;28;20340;-82
2023/03/04 07:47:44;;;;;;;4.22;2.67;;;;;;;;;;5083650;28;20069;-82
2023/03/04 07:50:11;;;;;;;7.63;3.35;;;;;;;;;;5090242;28;20020;-83
2023/03/04 07:52:38;;;;;;;11.02;5.85;;;;;;;;;;5087428;28;20043;-83
2023/03/04 07:55:04;;;;;;;16.13;6.80;;;;;;;;;;5083786;28;20380;-82
2023/03/04 07:57:29;;;;;;;7.00;4.55;;;;;;;;;;5103917;28;20024;-83
2023/03/04 07:59:55;;;;;;;6.30;4.60;;;;;;;;;;5082677;28;20029;-85
2023/03/04 08:02:20;;;;;;;5.45;2.90;;;;;;;;;;5090606;28;20464;-86
2023/03/04 08:04:46;;;;;;;6.15;4.30;;;;;;;;;;5086675;28;20063;-84
2023/03/04 08:07:11;;;;;;;6.43;2.55;;;;;;;;;;5084236;28;20115;-86
2023/03/04 08:09:36;;;;;;;9.88;5.30;;;;;;;;;;5085776;28;20132;-83
2023/03/04 08:12:02;;;;;;;4.22;3.58;;;;;;;;;;5103281;28;20527;-83
2023/03/04 08:14:27;;;;;;;5.60;3.63;;;;;;;;;;5081479;28;20112;-84
2023/03/04 08:16:55;;;;;;;8.93;5.57;;;;;;;;;;5085068;28;20020;-85
2023/03/04 08:19:25;;;;;;;4.80;3.17;;;;;;;;;;5083183;28;20058;-87
2023/03/04 08:21:50;;;;;;;8.18;3.40;;;;;;;;;;5085975;28;20543;-85
2023/03/04 08:24:15;;;;;;;5.15;3.70;;;;;;;;;;5082908;28;20123;-81
2023/03/04 08:26:45;;;;;;;11.63;4.20;;;;;;;;;;5083108;28;20027;-82
2023/03/04 08:29:17;;;;;;;8.93;5.32;;;;;;;;;;5081400;28;20074;-81
2023/03/04 08:31:45;;;;;;;7.38;3.90;;;;;;;;;;5081492;28;20093;-80
2023/03/04 08:34:12;;;;;;;7.20;4.95;;;;;;;;;;5082991;28;20143;-83
2023/03/04 08:36:37;;;;;;;9.00;4.50;;;;;;;;;;5080791;28;20460;-87
2023/03/04 08:39:06;;;;;;;10.95;4.70;;;;;;;;;;5086867;28;20028;-83
2023/03/04 08:41:32;;;;;;;7.32;4.47;;;;;;;;;;5080343;28;20111;-82
2023/03/04 08:43:59;;;;;;;7.60;4.25;;;;;;;;;;5088078;28;20107;-82
2023/03/04 08:46:25;;;;;;;10.77;5.00;;;;;;;;;;5086309;28;20028;-82
2023/03/04 08:48:50;;;;;;;7.93;4.47;;;;;;;;;;5080261;28;20460;-82
2023/03/04 08:51:16;;;;;;;5.15;3.78;;;;;;;;;;5082620;28;20030;-84
2023/03/04 08:53:41;;;;;;;4.53;3.10;;;;;;;;;;5084757;28;20024;-85
2023/03/04 08:56:08;;;;;;;6.25;3.53;;;;;;;;;;5107734;28;20101;-83
2023/03/04 08:58:34;;;;;;;8.90;4.47;;;;;;;;;;5087099;28;20043;-83
2023/03/04 09:01:00;;;;;;;7.15;4.57;;;;;;;;;;5087667;28;20393;-83
2023/03/04 09:03:27;;;;;;;9.95;3.38;;;;;;;;;;5089269;28;20536;-85
2023/03/04 09:05:52;;;;;;;8.75;5.88;;;;;;;;;;5085145;28;20025;-82
2023/03/04 09:08:18;;;;;;;6.30;5.20;;;;;;;;;;5086790;28;20020;-83
2023/03/04 09:10:44;;;;;;;8.68;4.57;;;;;;;;;;5083190;28;20094;-85
2023/03/04 09:13:10;;;;;;;6.60;3.15;;;;;;;;;;5107183;28;20028;-82
2023/03/04 09:15:37;;;;;;;5.32;3.95;;;;;;;;;;5088474;28;20155;-84
2023/03/04 09:18:04;;;;;;;7.85;4.22;;;;;;;;;;5086551;28;20046;-81
2023/03/04 09:20:30;;;;;;;6.22;2.67;;;;;;;;;;5086354;28;20035;-84
2023/03/04 09:22:56;;;;;;;6.70;3.90;;;;;;;;;;5086913;28;20034;-85
2023/03/04 09:25:21;;;;;;;5.10;3.08;;;;;;;;;;5086143;28;20048;-84
2023/03/04 09:27:47;;;;;;;5.40;3.08;;;;;;;;;;5088245;28;20032;-82
2023/03/04 09:30:12;;;;;;;6.43;3.92;;;;;;;;;;5091156;28;20024;-84
2023/03/04 09:32:38;;;;;;;4.70;3.28;;;;;;;;;;5090334;28;20063;-82
2023/03/04 09:35:04;;;;;;;5.32;3.15;;;;;;;;;;5089790;28;20043;-84
2023/03/04 09:37:30;;;;;;;6.00;3.63;;;;;;;;;;5108782;28;20035;-82
2023/03/04 09:39:55;;;;;;;14.45;5.20;;;;;;;;;;5088525;28;20057;-82
2023/03/04 09:42:27;;;;;;;8.68;5.30;;;;;;;;;;5093836;28;20020;-81
2023/03/04 09:44:53;;;;;;;9.70;6.85;;;;;;;;;;5089688;28;20384;-82
2023/03/04 09:47:21;;;;;;;15.32;8.07;;;;;;;;;;5088153;28;20626;-83
2023/03/04 09:50:06;;;;;;;9.75;4.20;;;;;;;;;;5088358;28;20054;-86
2023/03/04 09:52:55;;;;;;;5.65;3.00;;;;;;;;;;5085759;28;20042;-82
2023/03/04 09:55:27;;;;;;;5.32;3.33;;;;;;;;;;5082769;28;20032;-81
2023/03/04 09:58:04;;;;;;;3.97;2.92;;;;;;;;;;5086366;28;20024;-83
2023/03/04 10:00:42;;;;;;;4.07;2.85;;;;;;;;;;5083366;28;20082;-83
2023/03/04 10:03:10;;;;;;;8.65;3.90;;;;;;;;;;5083645;28;20103;-82
2023/03/04 10:05:50;;;;;;;7.07;3.78;;;;;;;;;;5103325;28;20020;-84
2023/03/04 10:08:39;;;;;;;5.97;3.97;;;;;;;;;;5106125;28;20032;-81
2023/03/04 10:11:24;;;;;;;8.40;2.92;;;;;;;;;;5105333;28;20119;-83
2023/03/04 10:13:56;;;;;;;9.85;4.80;;;;;;;;;;5085888;28;20095;-84
2023/03/04 10:16:27;;;;;;;8.52;3.65;;;;;;;;;;5105457;28;20111;-83
2023/03/04 10:18:57;;;;;;;17.60;5.70;;;;;;;;;;5089874;28;20099;-83
2023/03/04 10:21:30;;;;;;;9.73;5.10;;;;;;;;;;5086771;28;20048;-84
2023/03/04 10:23:59;;;;;;;6.75;4.28;;;;;;;;;;5087455;28;20043;-82
2023/03/04 10:26:30;;;;;;;7.30;2.95;;;;;;;;;;5080453;28;20025;-84
2023/03/04 10:28:55;;;;;;;6.07;3.47;;;;;;;;;;5086198;28;20027;-85
2023/03/04 10:31:33;;;;;;;5.18;2.92;;;;;;;;;;5083555;28;20050;-85
2023/03/04 10:33:58;;;;;;;10.10;4.50;;;;;;;;;;5086692;28;20468;-84
2023/03/04 10:36:29;;;;;;;6.90;4.20;;;;;;;;;;5085885;28;20027;-85
2023/03/04 10:39:00;;;;;;;6.63;4.00;;;;;;;;;;5089315;28;20047;-85
2023/03/04 10:41:31;;;;;;;5.22;3.33;;;;;;;;;;5088036;28;20028;-85
2023/03/04 10:44:15;;;;;;;6.63;3.90;;;;;;;;;;5086616;28;20034;-84
2023/03/04 10:46:46;;;;;;;9.65;5.63;;;;;;;;;;5087365;28;20031;-85
2023/03/04 10:49:17;;;;;;;6.40;4.15;;;;;;;;;;5082954;28;20032;-85
2023/03/04 10:51:44;;;;;;;6.57;4.55;;;;;;;;;;5086298;28;20043;-84
2023/03/04 10:54:27;;;;;;;13.82;5.30;;;;;;;;;;5083628;28;20153;-84
2023/03/04 10:57:03;;;;;;;10.00;4.43;;;;;;;;;;5107661;28;20388;-85
2023/03/04 10:59:46;;;;;;;6.00;4.47;;;;;;;;;;5108030;28;20035;-84
2023/03/04 11:02:24;;;;;;;8.38;5.10;;;;;;;;;;5104134;28;20174;-82
2023/03/04 11:04:52;;;;;;;6.35;4.75;;;;;;;;;;5084862;28;20379;-84
2023/03/04 11:07:22;;;;;;;7.63;3.53;;;;;;;;;;5085860;28;20096;-85
2023/03/04 11:09:48;;;;;;;6.18;3.50;;;;;;;;;;5086160;28;20028;-84
2023/03/04 11:12:15;;;;;;;10.15;5.78;;;;;;;;;;5082546;28;20024;-85
2023/03/04 11:14:47;;;;;;;6.18;3.72;;;;;;;;;;5087374;28;20165;-88
2023/03/04 11:17:28;;;;;;;9.75;5.10;;;;;;;;;;5079468;28;20039;-88
2023/03/04 11:20:01;;;;;;;18.08;8.52;;;;;;;;;;5086490;28;20032;-87
2023/03/04 11:22:29;;;;;;;7.10;5.05;;;;;;;;;;5082728;28;20024;-85
2023/03/04 11:25:02;;;;;;;10.90;6.15;;;;;;;;;;5109218;28;20066;-83
2023/03/04 11:27:35;;;;;;;7.85;4.53;;;;;;;;;;5089772;28;20027;-82
2023/03/04 11:30:15;;;;;;;7.50;4.50;;;;;;;;;;5086106;28;20032;-80
2023/03/04 11:32:44;;;;;;;9.63;4.75;;;;;;;;;;5087401;28;20129;-81
2023/03/04 11:35:28;;;;;;;6.80;3.67;;;;;;;;;;5087391;28;20032;-81
2023/03/04 11:38:17;;;;;;;5.78;3.92;;;;;;;;;;5087975;28;20029;-83
2023/03/04 11:40:52;;;;;;;6.88;3.63;;;;;;;;;;5088180;28;20074;-84
2023/03/04 11:43:34;;;;;;;7.32;3.00;;;;;;;;;;5081566;28;21881;-82
2023/03/04 11:46:14;;;;;;;6.07;4.82;;;;;;;;;;5086650;28;20103;-81
2023/03/04 11:48:58;;;;;;;6.15;4.07;;;;;;;;;;5105441;27;20085;-82
2023/03/04 11:51:46;;;;;;;5.93;3.95;;;;;;;;;;5080562;28;20107;-82
2023/03/04 11:54:34;;;;;;;4.55;3.70;;;;;;;;;;5082840;28;20028;-83
2023/03/04 11:57:11;;;;;;;9.30;4.18;;;;;;;;;;5089295;28;20060;-81
2023/03/04 11:59:46;;;;;;;7.22;4.55;;;;;;;;;;5104164;28;20031;-79
2023/03/04 12:02:30;;;;;;;7.97;4.82;;;;;;;;;;5085444;28;20024;-83
2023/03/04 12:05:30;;;;;;;9.80;4.40;;;;;;;;;;5083373;28;20464;-82
2023/03/04 12:08:01;;;;;;;6.13;4.35;;;;;;;;;;5087384;28;20028;-80
2023/03/04 12:10:50;;;;;;;7.30;3.88;;;;;;;;;;5081681;28;20426;-84
2023/03/04 12:13:37;;;;;;;7.90;5.28;;;;;;;;;;5083542;28;20051;-83
2023/03/04 12:16:47;;;;;;;11.82;5.05;;;;;;;;;;5088259;28;20383;-84
2023/03/04 12:19:40;;;;;;;11.77;5.07;;;;;;;;;;5038015;28;20228;-82
2023/03/04 12:22:39;;;;;;;7.93;5.28;;;;;;;;;;5041917;28;20029;-80
2023/03/04 12:25:16;;;;;;;9.18;4.25;;;;;;;;;;5076555;28;20036;-82
2023/03/04 12:28:10;;;;;;;8.05;4.80;;;;;;;;;;5081992;28;20039;-82
2023/03/04 12:30:57;;;;;;;8.13;4.32;;;;;;;;;;5104304;28;20036;-81
2023/03/04 12:33:40;;;;;;;6.72;5.00;;;;;;;;;;5102925;28;20036;-82
2023/03/04 12:36:08;;;;;;;7.53;4.97;;;;;;;;;;5075762;28;20094;-83
2023/03/04 12:38:57;;;;;;;14.35;6.28;;;;;;;;;;5105886;28;20051;-85
2023/03/04 12:41:47;;;;;;;;;;;;;;;;;;5084392;28;20047;-81
2023/03/04 12:44:19;;;;;;;5.47;4.15;;;;;;;;;;5083430;28;20387;-82
2023/03/04 12:47:00;;;;;;;8.88;5.00;;;;;;;;;;5079747;28;20070;-84
2023/03/04 12:49:38;;;;;;;8.82;5.78;;;;;;;;;;5077990;28;20389;-81
2023/03/04 12:52:22;;;;;;;6.43;4.20;;;;;;;;;;5085013;28;20029;-83
2023/03/04 12:54:56;;;;;;;4.65;3.90;;;;;;;;;;5105798;28;20062;-80
2023/03/04 12:57:24;;;;;;;5.75;4.82;;;;;;;;;;5084138;28;21458;-82
2023/03/04 13:00:23;;;;;;;9.27;4.60;;;;;;;;;;5078119;28;20532;-83
2023/03/04 13:03:07;;;;;;;7.40;4.60;;;;;;;;;;5104693;28;20792;-81
2023/03/04 13:06:07;;;;;;;8.70;5.93;;;;;;;;;;5078668;28;20257;-81
2023/03/04 13:09:10;;;;;;;9.52;5.47;;;;;;;;;;5078745;28;20036;-82
2023/03/04 13:11:48;;;;;;;6.50;4.22;;;;;;;;;;5087779;28;20110;-83
2023/03/04 13:14:17;;;;;;;10.88;5.80;;;;;;;;;;5089217;28;20024;-83
2023/03/04 13:16:50;;;;;;;9.27;4.40;;;;;;;;;;5084498;28;20060;-83
2023/03/04 13:19:55;;;;;;;9.77;5.95;;;;;;;;;;5073758;28;20039;-83
2023/03/04 13:22:43;;;;;;;7.60;4.20;;;;;;;;;;5081670;28;20020;-85
2023/03/04 13:25:30;;;;;;;9.18;5.15;;;;;;;;;;5082557;28;20103;-84
2023/03/04 13:28:01;;;;;;;12.05;6.25;;;;;;;;;;5077417;28;20024;-81
2023/03/04 13:30:30;;;;;;;10.02;5.97;;;;;;;;;;5080127;28;20029;-82
2023/03/04 13:32:56;;;;;;;7.75;4.53;;;;;;;;;;5083401;28;20395;-84
2023/03/04 13:35:47;;;;;;;9.13;5.45;;;;;;;;;;5077405;28;20032;-86
2023/03/04 13:38:33;;;;;;;7.82;5.35;;;;;;;;;;5105557;28;20024;-82
2023/03/04 13:41:07;;;;;;;12.80;5.88;;;;;;;;;;5086163;28;20040;-81
2023/03/04 13:43:41;;;;;;;11.27;5.35;;;;;;;;;;5085917;28;20134;-83
2023/03/04 13:46:19;;;;;;;13.73;7.15;;;;;;;;;;5081474;28;20108;-82
2023/03/04 13:48:50;;;;;;;7.55;4.72;;;;;;;;;;5081919;28;20117;-84
2023/03/04 13:51:45;;;;;;;11.23;5.70;;;;;;;;;;5086407;28;20031;-84
2023/03/04 13:54:30;;;;;;;10.05;5.47;;;;;;;;;;5078543;28;20031;-85
2023/03/04 13:56:59;;;;;;;9.45;5.22;;;;;;;;;;5079911;28;20025;-81
2023/03/04 13:59:43;;;;;;;8.75;5.38;;;;;;;;;;5082120;28;20032;-82
2023/03/04 14:02:37;;;;;;;10.52;6.28;;;;;;;;;;5085217;28;20495;-82
2023/03/04 14:05:03;;;;;;;13.95;6.60;;;;;;;;;;5077969;28;20036;-82
2023/03/04 14:07:31;;;;;;;11.65;5.97;;;;;;;;;;5077490;28;20147;-82
2023/03/04 14:09:57;;;;;;;9.77;5.00;;;;;;;;;;5080253;28;20372;-85
2023/03/04 14:12:24;;;;;;;7.28;4.50;;;;;;;;;;5105006;28;20032;-82
2023/03/04 14:14:59;;;;;;;7.85;4.90;;;;;;;;;;5085455;28;20093;-83
2023/03/04 14:17:30;;;;;;;7.15;4.72;;;;;;;;;;5087702;28;20483;-81
2023/03/04 14:19:55;;;;;;;10.90;5.18;;;;;;;;;;5085951;28;20036;-84
2023/03/04 14:22:29;;;;;;;10.75;6.30;;;;;;;;;;5089537;28;20034;-83
2023/03/04 14:25:02;;;;;;;11.90;6.47;;;;;;;;;;5087604;28;20035;-85
2023/03/04 14:27:29;;;;;;;10.73;6.55;;;;;;;;;;5085674;28;20458;-81
2023/03/04 14:29:59;;;;;;;12.20;5.57;;;;;;;;;;5077094;28;20024;-80
2023/03/04 14:32:26;;;;;;;10.20;5.45;;;;;;;;;;5088641;28;20086;-80
2023/03/04 14:35:06;;;;;;;9.88;6.25;;;;;;;;;;5083193;28;20120;-83
2023/03/04 14:37:47;;;;;;;15.43;5.45;;;;;;;;;;5084537;28;20032;-83
2023/03/04 14:40:20;;;;;;;7.22;5.40;;;;;;;;;;5106341;28;20047;-83
2023/03/04 14:42:48;;;;;;;8.80;5.78;;;;;;;;;;5087191;28;20471;-81
2023/03/04 14:45:15;;;;;;;11.98;6.55;;;;;;;;;;5089030;28;20028;-82
2023/03/04 14:47:46;;;;;;;7.82;5.28;;;;;;;;;;5087786;28;20032;-83
2023/03/04 14:50:19;;;;;;;7.75;4.38;;;;;;;;;;5086035;28;20020;-81
2023/03/04 14:52:47;;;;;;;11.15;5.47;;;;;;;;;;5081181;28;20024;-82
2023/03/04 14:55:21;;;;;;;6.90;5.00;;;;;;;;;;5089688;28;20111;-81
2023/03/04 14:57:50;;;;;;;10.90;5.60;;;;;;;;;;5088603;28;20051;-82